sensor_id;sensor_type;location;lat;lon;timestamp;pressure;altitude;pressure_sealevel;temperature;humidity
36600;BME280;35385;55.668;37.508;2023-05-03T00:00:00;99460.09;;;9.17;100.00
36600;BME280;35385;55.668;37.508;2023-05-03T00:01:06;99461.78;;;9.18;100.00
36600;BME280;35385;55.668;37.508;2023-05-03T00:02:07;99476.31;;;9.14;100.00
36600;BME280;35385;55.668;37.508;2023-05-03T00:03:09;99459.72;;;9.10;100.00
36600;BME280;35385;55.668;37.508;2023-05-03T00:04:10;99461.69;;;9.08;100.00
36600;BME280;35385;55.668;37.508;2023-05-03T00:05:11;99424.88;;;8.80;100.00
36600;BME280;35385;55.668;37.508;2023-05-03T00:06:14;99456.22;;;8.99;100.00
36600;BME280;35385;55.668;37.508;2023-05-03T00:07:16;99464.69;;;9.04;100.00
36600;BME280;35385;55.668;37.508;2023-05-03T00:08:17;99398.59;;;8.64;100.00
36600;BME280;35385;55.668;37.508;2023-05-03T00:09:18;99360.97;;;8.46;100.00
36600;BME280;35385;55.668;37.508;2023-05-03T00:10:19;99430.31;;;8.78;100.00
36600;BME280;35385;55.668;37.508;2023-05-03T00:11:21;99460.69;;;8.98;100.00
36600;BME280;35385;55.668;37.508;2023-05-03T00:12:21;99439.75;;;8.94;100.00
36600;BME280;35385;55.668;37.508;2023-05-03T00:13:22;99440.09;;;9.00;100.00
36600;BME280;35385;55.668;37.508;2023-05-03T00:14:23;99469.19;;;9.03;100.00
36600;BME280;35385;55.668;37.508;2023-05-03T00:15:23;99442.16;;;8.97;100.00
36600;BME280;35385;55.668;37.508;2023-05-03T00:16:24;99422.34;;;8.78;100.00
36600;BME280;35385;55.668;37.508;2023-05-03T00:17:25;99444.59;;;9.00;100.00
36600;BME280;35385;55.668;37.508;2023-05-03T00:18:26;99417.00;;;8.78;100.00
36600;BME280;35385;55.668;37.508;2023-05-03T00:19:27;99396.41;;;8.69;100.00
36600;BME280;35385;55.668;37.508;2023-05-03T00:20:32;99440.22;;;8.99;100.00
36600;BME280;35385;55.668;37.508;2023-05-03T00:21:32;99444.09;;;8.95;100.00
36600;BME280;35385;55.668;37.508;2023-05-03T00:22:33;99444.09;;;8.95;100.00
36600;BME280;35385;55.668;37.508;2023-05-03T00:23:34;99438.41;;;8.88;100.00
36600;BME280;35385;55.668;37.508;2023-05-03T00:24:35;99435.41;;;8.93;100.00
36600;BME280;35385;55.668;37.508;2023-05-03T00:25:35;99397.13;;;8.71;100.00
36600;BME280;35385;55.668;37.508;2023-05-03T00:26:36;99437.34;;;8.91;100.00
36600;BME280;35385;55.668;37.508;2023-05-03T00:27:37;99414.06;;;8.81;100.00
36600;BME280;35385;55.668;37.508;2023-05-03T00:28:37;99418.81;;;8.89;100.00
36600;BME280;35385;55.668;37.508;2023-05-03T00:29:38;99395.78;;;8.66;100.00
36600;BME280;35385;55.668;37.508;2023-05-03T00:30:38;99423.53;;;8.85;100.00
36600;BME280;35385;55.668;37.508;2023-05-03T00:31:39;99346.31;;;8.41;100.00
36600;BME280;35385;55.668;37.508;2023-05-03T00:32:39;99365.44;;;8.57;100.00
36600;BME280;35385;55.668;37.508;2023-05-03T00:33:40;99434.56;;;8.92;100.00
36600;BME280;35385;55.668;37.508;2023-05-03T00:34:41;99429.81;;;8.96;100.00
36600;BME280;35385;55.668;37.508;2023-05-03T00:35:42;99434.28;;;8.84;100.00
36600;BME280;35385;55.668;37.508;2023-05-03T00:36:43;99432.72;;;8.81;100.00
36600;BME280;35385;55.668;37.508;2023-05-03T00:37:43;99426.44;;;8.82;100.00
36600;BME280;35385;55.668;37.508;2023-05-03T00:38:44;99412.75;;;8.76;100.00
36600;BME280;35385;55.668;37.508;2023-05-03T00:39:44;99435.88;;;8.86;100.00
36600;BME280;35385;55.668;37.508;2023-05-03T00:40:45;99422.06;;;8.81;100.00
36600;BME280;35385;55.668;37.508;2023-05-03T00:41:56;99334.16;;;8.26;100.00
36600;BME280;35385;55.668;37.508;2023-05-03T00:42:56;99421.94;;;8.83;100.00
36600;BME280;35385;55.668;37.508;2023-05-03T00:43:57;99413.84;;;8.73;100.00
36600;BME280;35385;55.668;37.508;2023-05-03T00:44:57;99419.16;;;8.84;100.00
36600;BME280;35385;55.668;37.508;2023-05-03T00:45:59;99420.50;;;8.90;100.00
36600;BME280;35385;55.668;37.508;2023-05-03T00:47:02;99423.53;;;8.85;100.00
36600;BME280;35385;55.668;37.508;2023-05-03T00:48:04;99418.94;;;8.88;100.00
36600;BME280;35385;55.668;37.508;2023-05-03T00:49:05;99427.88;;;8.86;100.00
36600;BME280;35385;55.668;37.508;2023-05-03T00:50:06;99340.53;;;8.36;100.00
36600;BME280;35385;55.668;37.508;2023-05-03T00:51:07;99417.47;;;8.83;100.00
36600;BME280;35385;55.668;37.508;2023-05-03T00:52:08;99404.53;;;8.79;100.00
36600;BME280;35385;55.668;37.508;2023-05-03T00:53:10;99418.44;;;8.82;100.00
36600;BME280;35385;55.668;37.508;2023-05-03T00:54:10;99425.47;;;8.83;100.00
36600;BME280;35385;55.668;37.508;2023-05-03T00:55:11;99409.88;;;8.79;100.00
36600;BME280;35385;55.668;37.508;2023-05-03T00:56:17;99426.19;;;8.74;100.00
36600;BME280;35385;55.668;37.508;2023-05-03T00:57:23;99369.78;;;8.47;100.00
36600;BME280;35385;55.668;37.508;2023-05-03T00:58:25;99418.94;;;8.76;100.00
36600;BME280;35385;55.668;37.508;2023-05-03T00:59:26;99396.19;;;8.61;100.00
36600;BME280;35385;55.668;37.508;2023-05-03T01:00:27;99383.84;;;8.60;100.00
36600;BME280;35385;55.668;37.508;2023-05-03T01:01:28;99399.31;;;8.66;100.00
36600;BME280;35385;55.668;37.508;2023-05-03T01:02:29;99361.31;;;8.42;100.00
36600;BME280;35385;55.668;37.508;2023-05-03T01:03:30;99401.50;;;8.61;100.00
36600;BME280;35385;55.668;37.508;2023-05-03T01:04:31;99389.66;;;8.65;100.00
36600;BME280;35385;55.668;37.508;2023-05-03T01:05:39;99396.41;;;8.69;100.00
36600;BME280;35385;55.668;37.508;2023-05-03T01:08:16;99372.22;;;8.61;100.00
36600;BME280;35385;55.668;37.508;2023-05-03T01:11:01;99387.69;;;8.67;100.00
36600;BME280;35385;55.668;37.508;2023-05-03T01:12:43;99380.66;;;8.66;100.00
36600;BME280;35385;55.668;37.508;2023-05-03T01:15:15;99389.75;;;8.52;100.00
36600;BME280;35385;55.668;37.508;2023-05-03T01:16:28;99391.19;;;8.57;100.00
36600;BME280;35385;55.668;37.508;2023-05-03T01:17:35;99382.72;;;8.51;100.00
36600;BME280;35385;55.668;37.508;2023-05-03T01:18:39;99337.06;;;8.23;100.00
36600;BME280;35385;55.668;37.508;2023-05-03T01:19:49;99389.38;;;8.57;100.00
36600;BME280;35385;55.668;37.508;2023-05-03T01:20:52;99383.84;;;8.49;100.00
36600;BME280;35385;55.668;37.508;2023-05-03T01:21:58;99354.38;;;8.28;100.00
36600;BME280;35385;55.668;37.508;2023-05-03T01:23:28;99382.38;;;8.45;100.00
36600;BME280;35385;55.668;37.508;2023-05-03T01:24:34;99392.16;;;8.44;100.00
36600;BME280;35385;55.668;37.508;2023-05-03T01:25:36;99373.88;;;8.40;100.00
36600;BME280;35385;55.668;37.508;2023-05-03T01:26:37;99365.88;;;8.29;100.00
36600;BME280;35385;55.668;37.508;2023-05-03T01:27:39;99376.66;;;8.38;100.00
36600;BME280;35385;55.668;37.508;2023-05-03T01:28:40;99394.94;;;8.43;100.00
36600;BME280;35385;55.668;37.508;2023-05-03T01:29:40;99386.13;;;8.42;100.00
36600;BME280;35385;55.668;37.508;2023-05-03T01:30:42;99331.25;;;8.06;100.00
36600;BME280;35385;55.668;37.508;2023-05-03T01:31:52;99374.00;;;8.38;100.00
36600;BME280;35385;55.668;37.508;2023-05-03T01:33:04;99368.69;;;8.38;100.00
36600;BME280;35385;55.668;37.508;2023-05-03T01:35:39;99346.28;;;8.30;100.00
36600;BME280;35385;55.668;37.508;2023-05-03T01:36:44;99370.03;;;8.44;100.00
36600;BME280;35385;55.668;37.508;2023-05-03T01:37:47;99379.94;;;8.42;100.00
36600;BME280;35385;55.668;37.508;2023-05-03T01:38:48;99378.97;;;8.43;100.00
36600;BME280;35385;55.668;37.508;2023-05-03T01:39:53;99292.06;;;7.97;100.00
36600;BME280;35385;55.668;37.508;2023-05-03T01:40:58;99356.94;;;8.41;100.00
36600;BME280;35385;55.668;37.508;2023-05-03T01:42:01;99369.41;;;8.40;100.00
36600;BME280;35385;55.668;37.508;2023-05-03T01:43:03;99367.84;;;8.38;100.00
36600;BME280;35385;55.668;37.508;2023-05-03T01:44:05;99350.63;;;8.31;100.00
36600;BME280;35385;55.668;37.508;2023-05-03T01:45:06;99375.34;;;8.44;100.00
36600;BME280;35385;55.668;37.508;2023-05-03T01:46:07;99360.34;;;8.43;100.00
36600;BME280;35385;55.668;37.508;2023-05-03T01:47:08;99318.81;;;8.18;100.00
36600;BME280;35385;55.668;37.508;2023-05-03T01:48:10;99298.72;;;8.14;100.00
36600;BME280;35385;55.668;37.508;2023-05-03T01:49:11;99340.03;;;8.42;100.00
36600;BME280;35385;55.668;37.508;2023-05-03T01:50:12;99356.09;;;8.51;100.00
36600;BME280;35385;55.668;37.508;2023-05-03T01:51:13;99302.25;;;8.14;100.00
36600;BME280;35385;55.668;37.508;2023-05-03T01:52:13;99314.06;;;8.10;100.00
36600;BME280;35385;55.668;37.508;2023-05-03T01:53:14;99350.19;;;8.48;100.00
36600;BME280;35385;55.668;37.508;2023-05-03T01:54:14;99369.78;;;8.47;100.00
36600;BME280;35385;55.668;37.508;2023-05-03T01:55:15;99347.16;;;8.41;100.00
36600;BME280;35385;55.668;37.508;2023-05-03T01:56:16;99367.38;;;8.44;100.00
36600;BME280;35385;55.668;37.508;2023-05-03T01:57:16;99347.50;;;8.37;100.00
36600;BME280;35385;55.668;37.508;2023-05-03T01:58:17;99351.16;;;8.36;100.00
36600;BME280;35385;55.668;37.508;2023-05-03T01:59:17;99366.63;;;8.42;100.00
36600;BME280;35385;55.668;37.508;2023-05-03T02:00:18;99354.78;;;8.35;100.00
36600;BME280;35385;55.668;37.508;2023-05-03T02:01:19;99372.81;;;8.42;100.00
36600;BME280;35385;55.668;37.508;2023-05-03T02:02:19;99369.41;;;8.40;100.00
36600;BME280;35385;55.668;37.508;2023-05-03T02:03:20;99294.50;;;8.11;100.00
36600;BME280;35385;55.668;37.508;2023-05-03T02:04:21;99368.78;;;8.37;100.00
36600;BME280;35385;55.668;37.508;2023-05-03T02:05:22;99351.41;;;8.33;100.00
36600;BME280;35385;55.668;37.508;2023-05-03T02:06:26;99351.59;;;8.30;100.00
36600;BME280;35385;55.668;37.508;2023-05-03T02:07:27;99323.75;;;8.11;100.00
36600;BME280;35385;55.668;37.508;2023-05-03T02:08:27;99361.81;;;8.36;100.00
36600;BME280;35385;55.668;37.508;2023-05-03T02:09:28;99352.13;;;8.35;100.00
36600;BME280;35385;55.668;37.508;2023-05-03T02:10:28;99363.47;;;8.37;100.00
36600;BME280;35385;55.668;37.508;2023-05-03T02:11:32;99311.06;;;8.04;100.00
36600;BME280;35385;55.668;37.508;2023-05-03T02:12:32;99349.69;;;8.43;100.00
36600;BME280;35385;55.668;37.508;2023-05-03T02:13:34;99286.75;;;7.97;100.00
36600;BME280;35385;55.668;37.508;2023-05-03T02:14:35;99363.47;;;8.37;100.00
36600;BME280;35385;55.668;37.508;2023-05-03T02:15:35;99257.81;;;7.81;100.00
36600;BME280;35385;55.668;37.508;2023-05-03T02:16:36;99279.59;;;7.87;100.00
36600;BME280;35385;55.668;37.508;2023-05-03T02:17:37;99366.88;;;8.39;100.00
36600;BME280;35385;55.668;37.508;2023-05-03T02:18:37;99355.22;;;8.29;100.00
36600;BME280;35385;55.668;37.508;2023-05-03T02:19:39;99308.75;;;8.10;100.00
36600;BME280;35385;55.668;37.508;2023-05-03T02:20:43;99358.16;;;8.37;100.00
36600;BME280;35385;55.668;37.508;2023-05-03T02:21:44;99350.91;;;8.39;100.00
36600;BME280;35385;55.668;37.508;2023-05-03T02:22:45;99367.84;;;8.38;100.00
36600;BME280;35385;55.668;37.508;2023-05-03T02:23:45;99357.19;;;8.38;100.00
36600;BME280;35385;55.668;37.508;2023-05-03T02:24:46;99362.41;;;8.39;100.00
36600;BME280;35385;55.668;37.508;2023-05-03T02:25:47;99347.66;;;8.35;100.00
36600;BME280;35385;55.668;37.508;2023-05-03T02:26:48;99361.94;;;8.45;100.00
36600;BME280;35385;55.668;37.508;2023-05-03T02:27:48;99352.25;;;8.44;100.00
36600;BME280;35385;55.668;37.508;2023-05-03T02:28:49;99322.56;;;8.27;100.00
36600;BME280;35385;55.668;37.508;2023-05-03T02:29:50;99307.09;;;8.21;100.00
36600;BME280;35385;55.668;37.508;2023-05-03T02:30:51;99318.69;;;8.31;100.00
36600;BME280;35385;55.668;37.508;2023-05-03T02:31:51;99346.31;;;8.52;100.00
36600;BME280;35385;55.668;37.508;2023-05-03T02:32:52;99279.03;;;8.05;100.00
36600;BME280;35385;55.668;37.508;2023-05-03T02:33:52;99310.59;;;8.21;100.00
36600;BME280;35385;55.668;37.508;2023-05-03T02:34:54;99343.06;;;8.48;100.00
36600;BME280;35385;55.668;37.508;2023-05-03T02:35:55;99311.19;;;8.25;100.00
36600;BME280;35385;55.668;37.508;2023-05-03T02:36:55;99349.69;;;8.54;100.00
36600;BME280;35385;55.668;37.508;2023-05-03T02:37:56;99332.75;;;8.44;100.00
36600;BME280;35385;55.668;37.508;2023-05-03T02:38:56;99348.50;;;8.47;100.00
36600;BME280;35385;55.668;37.508;2023-05-03T02:39:57;99342.94;;;8.50;100.00
36600;BME280;35385;55.668;37.508;2023-05-03T02:40:58;99349.13;;;8.50;100.00
36600;BME280;35385;55.668;37.508;2023-05-03T02:41:59;99288.19;;;8.24;100.00
36600;BME280;35385;55.668;37.508;2023-05-03T02:42:59;99310.72;;;8.31;100.00
36600;BME280;35385;55.668;37.508;2023-05-03T02:44:01;99348.97;;;8.52;100.00
36600;BME280;35385;55.668;37.508;2023-05-03T02:45:02;99348.00;;;8.53;100.00
36600;BME280;35385;55.668;37.508;2023-05-03T02:46:05;99325.00;;;8.52;100.00
36600;BME280;35385;55.668;37.508;2023-05-03T02:47:06;99343.91;;;8.60;100.00
36600;BME280;35385;55.668;37.508;2023-05-03T02:48:06;99342.19;;;8.59;100.00
36600;BME280;35385;55.668;37.508;2023-05-03T02:49:08;99344.63;;;8.62;100.00
36600;BME280;35385;55.668;37.508;2023-05-03T02:50:09;99338.34;;;8.63;100.00
36600;BME280;35385;55.668;37.508;2023-05-03T02:51:09;99335.78;;;8.62;100.00
36600;BME280;35385;55.668;37.508;2023-05-03T02:52:10;99348.72;;;8.66;100.00
36600;BME280;35385;55.668;37.508;2023-05-03T02:53:11;99299.38;;;8.40;100.00
36600;BME280;35385;55.668;37.508;2023-05-03T02:54:11;99336.88;;;8.59;100.00
36600;BME280;35385;55.668;37.508;2023-05-03T02:55:12;99337.34;;;8.53;100.00
36600;BME280;35385;55.668;37.508;2023-05-03T02:56:13;99324.53;;;8.47;100.00
36600;BME280;35385;55.668;37.508;2023-05-03T02:57:14;99348.97;;;8.63;100.00
36600;BME280;35385;55.668;37.508;2023-05-03T02:58:14;99320.19;;;8.46;100.00
36600;BME280;35385;55.668;37.508;2023-05-03T02:59:15;99311.72;;;8.41;100.00
36600;BME280;35385;55.668;37.508;2023-05-03T03:00:16;99333.47;;;8.57;100.00
36600;BME280;35385;55.668;37.508;2023-05-03T03:01:16;99338.31;;;8.52;100.00
36600;BME280;35385;55.668;37.508;2023-05-03T03:02:17;99345.81;;;8.58;100.00
36600;BME280;35385;55.668;37.508;2023-05-03T03:03:18;99344.13;;;8.57;100.00
36600;BME280;35385;55.668;37.508;2023-05-03T03:04:18;99328.03;;;8.59;100.00
36600;BME280;35385;55.668;37.508;2023-05-03T03:05:19;99255.19;;;8.04;100.00
36600;BME280;35385;55.668;37.508;2023-05-03T03:06:20;99334.56;;;8.55;100.00
36600;BME280;35385;55.668;37.508;2023-05-03T03:07:21;99346.69;;;8.59;100.00
36600;BME280;35385;55.668;37.508;2023-05-03T03:08:21;99300.06;;;8.31;100.00
36600;BME280;35385;55.668;37.508;2023-05-03T03:09:22;99342.94;;;8.61;100.00
36600;BME280;35385;55.668;37.508;2023-05-03T03:10:23;99338.69;;;8.59;100.00
36600;BME280;35385;55.668;37.508;2023-05-03T03:11:23;99341.59;;;8.56;100.00
36600;BME280;35385;55.668;37.508;2023-05-03T03:12:24;99348.72;;;8.66;100.00
36600;BME280;35385;55.668;37.508;2023-05-03T03:13:26;99340.28;;;8.61;100.00
36600;BME280;35385;55.668;37.508;2023-05-03T03:14:28;99341.47;;;8.68;100.00
36600;BME280;35385;55.668;37.508;2023-05-03T03:15:28;99343.75;;;8.73;100.00
36600;BME280;35385;55.668;37.508;2023-05-03T03:16:29;99291.88;;;8.45;100.00
36600;BME280;35385;55.668;37.508;2023-05-03T03:17:30;99305.06;;;8.46;100.00
36600;BME280;35385;55.668;37.508;2023-05-03T03:18:31;99355.47;;;8.81;100.00
36600;BME280;35385;55.668;37.508;2023-05-03T03:19:33;99319.44;;;8.55;100.00
36600;BME280;35385;55.668;37.508;2023-05-03T03:20:34;99299.84;;;8.45;100.00
36600;BME280;35385;55.668;37.508;2023-05-03T03:21:34;99336.00;;;8.70;100.00
36600;BME280;35385;55.668;37.508;2023-05-03T03:22:39;99353.66;;;8.82;100.00
36600;BME280;35385;55.668;37.508;2023-05-03T03:23:40;99342.16;;;8.81;100.00
36600;BME280;35385;55.668;37.508;2023-05-03T03:24:41;99313.75;;;8.60;100.00
36600;BME280;35385;55.668;37.508;2023-05-03T03:25:41;99294.53;;;8.56;100.00
36600;BME280;35385;55.668;37.508;2023-05-03T03:26:42;99350.03;;;8.83;100.00
36600;BME280;35385;55.668;37.508;2023-05-03T03:27:42;99353.44;;;8.85;100.00
36600;BME280;35385;55.668;37.508;2023-05-03T03:28:43;99356.69;;;8.89;100.00
36600;BME280;35385;55.668;37.508;2023-05-03T03:29:43;99343.50;;;8.87;100.00
36600;BME280;35385;55.668;37.508;2023-05-03T03:30:44;99361.16;;;8.99;100.00
36600;BME280;35385;55.668;37.508;2023-05-03T03:31:45;99306.38;;;8.74;100.00
36600;BME280;35385;55.668;37.508;2023-05-03T03:32:45;99317.75;;;8.76;100.00
36600;BME280;35385;55.668;37.508;2023-05-03T03:33:46;99356.19;;;8.95;100.00
36600;BME280;35385;55.668;37.508;2023-05-03T03:34:47;99350.41;;;8.90;100.00
36600;BME280;35385;55.668;37.508;2023-05-03T03:35:48;99354.66;;;8.92;100.00
36600;BME280;35385;55.668;37.508;2023-05-03T03:36:48;99339.66;;;8.80;100.00
36600;BME280;35385;55.668;37.508;2023-05-03T03:37:49;99354.50;;;8.82;100.00
36600;BME280;35385;55.668;37.508;2023-05-03T03:38:50;99354.28;;;8.85;100.00
36600;BME280;35385;55.668;37.508;2023-05-03T03:39:50;99345.78;;;8.80;100.00
36600;BME280;35385;55.668;37.508;2023-05-03T03:40:51;99352.81;;;8.81;100.00
36600;BME280;35385;55.668;37.508;2023-05-03T03:41:52;99298.38;;;8.52;100.00
36600;BME280;35385;55.668;37.508;2023-05-03T03:42:52;99352.97;;;8.80;100.00
36600;BME280;35385;55.668;37.508;2023-05-03T03:43:53;99312.06;;;8.59;100.00
36600;BME280;35385;55.668;37.508;2023-05-03T03:44:53;99343.28;;;8.79;100.00
36600;BME280;35385;55.668;37.508;2023-05-03T03:45:54;99366.28;;;8.91;100.00
36600;BME280;35385;55.668;37.508;2023-05-03T03:46:55;99376.19;;;8.89;100.00
36600;BME280;35385;55.668;37.508;2023-05-03T03:47:55;99349.19;;;8.82;100.00
36600;BME280;35385;55.668;37.508;2023-05-03T03:48:57;99371.09;;;8.97;100.00
36600;BME280;35385;55.668;37.508;2023-05-03T03:50:00;99352.47;;;8.75;100.00
36600;BME280;35385;55.668;37.508;2023-05-03T03:51:01;99314.72;;;8.59;100.00
36600;BME280;35385;55.668;37.508;2023-05-03T03:52:01;99364.44;;;8.92;100.00
36600;BME280;35385;55.668;37.508;2023-05-03T03:53:02;99366.00;;;8.83;100.00
36600;BME280;35385;55.668;37.508;2023-05-03T03:54:03;99382.97;;;8.82;100.00
36600;BME280;35385;55.668;37.508;2023-05-03T03:55:04;99314.84;;;8.57;100.00
36600;BME280;35385;55.668;37.508;2023-05-03T03:56:05;99327.44;;;8.55;100.00
36600;BME280;35385;55.668;37.508;2023-05-03T03:57:07;99376.66;;;8.83;100.00
36600;BME280;35385;55.668;37.508;2023-05-03T03:58:08;99335.06;;;8.48;100.00
36600;BME280;35385;55.668;37.508;2023-05-03T03:59:09;99380.41;;;8.80;100.00
36600;BME280;35385;55.668;37.508;2023-05-03T04:00:10;99371.97;;;8.75;100.00
36600;BME280;35385;55.668;37.508;2023-05-03T04:01:11;99288.19;;;8.24;100.00
36600;BME280;35385;55.668;37.508;2023-05-03T04:02:11;99382.50;;;8.77;100.00
36600;BME280;35385;55.668;37.508;2023-05-03T04:03:12;99387.22;;;8.73;100.00
36600;BME280;35385;55.668;37.508;2023-05-03T04:04:13;99369.66;;;8.71;100.00
36600;BME280;35385;55.668;37.508;2023-05-03T04:05:13;99378.88;;;8.78;100.00
36600;BME280;35385;55.668;37.508;2023-05-03T04:06:14;99331.06;;;8.43;100.00
36600;BME280;35385;55.668;37.508;2023-05-03T04:07:14;99361.81;;;8.58;100.00
36600;BME280;35385;55.668;37.508;2023-05-03T04:08:15;99382.84;;;8.72;100.00
36600;BME280;35385;55.668;37.508;2023-05-03T04:09:16;99365.94;;;8.62;100.00
36600;BME280;35385;55.668;37.508;2023-05-03T04:10:16;99380.44;;;8.69;100.00
36600;BME280;35385;55.668;37.508;2023-05-03T04:11:17;99322.31;;;8.30;100.00
36600;BME280;35385;55.668;37.508;2023-05-03T04:12:18;99382.63;;;8.64;100.00
36600;BME280;35385;55.668;37.508;2023-05-03T04:13:18;99343.53;;;8.42;100.00
36600;BME280;35385;55.668;37.508;2023-05-03T04:14:19;99374.75;;;8.74;100.00
36600;BME280;35385;55.668;37.508;2023-05-03T04:15:20;99356.34;;;8.60;100.00
36600;BME280;35385;55.668;37.508;2023-05-03T04:16:20;99371.22;;;8.84;100.00
36600;BME280;35385;55.668;37.508;2023-05-03T04:17:21;99351.38;;;8.66;100.00
36600;BME280;35385;55.668;37.508;2023-05-03T04:18:22;99327.91;;;8.60;100.00
36600;BME280;35385;55.668;37.508;2023-05-03T04:19:23;99387.47;;;8.93;100.00
36600;BME280;35385;55.668;37.508;2023-05-03T04:20:25;99326.00;;;8.62;100.00
36600;BME280;35385;55.668;37.508;2023-05-03T04:21:26;99384.53;;;8.96;100.00
36600;BME280;35385;55.668;37.508;2023-05-03T04:22:27;99378.50;;;8.94;100.00
36600;BME280;35385;55.668;37.508;2023-05-03T04:23:30;99366.63;;;8.86;100.00
36600;BME280;35385;55.668;37.508;2023-05-03T04:24:31;99342.69;;;8.75;100.00
36600;BME280;35385;55.668;37.508;2023-05-03T04:25:31;99261.75;;;8.33;100.00
36600;BME280;35385;55.668;37.508;2023-05-03T04:26:32;99371.59;;;8.91;100.00
36600;BME280;35385;55.668;37.508;2023-05-03T04:27:33;99386.47;;;8.82;100.00
36600;BME280;35385;55.668;37.508;2023-05-03T04:28:34;99330.94;;;8.56;100.00
36600;BME280;35385;55.668;37.508;2023-05-03T04:29:35;99342.09;;;8.49;100.00
36600;BME280;35385;55.668;37.508;2023-05-03T04:30:36;99396.41;;;8.80;100.00
36600;BME280;35385;55.668;37.508;2023-05-03T04:31:37;99392.31;;;8.76;100.00
36600;BME280;35385;55.668;37.508;2023-05-03T04:32:38;99387.22;;;8.73;100.00
36600;BME280;35385;55.668;37.508;2023-05-03T04:33:39;99384.78;;;8.70;100.00
36600;BME280;35385;55.668;37.508;2023-05-03T04:34:40;99376.31;;;8.76;100.00
36600;BME280;35385;55.668;37.508;2023-05-03T04:35:41;99384.19;;;8.78;100.00
36600;BME280;35385;55.668;37.508;2023-05-03T04:36:42;99337.84;;;8.47;100.00
36600;BME280;35385;55.668;37.508;2023-05-03T04:37:44;99375.22;;;8.57;100.00
36600;BME280;35385;55.668;37.508;2023-05-03T04:38:46;99411.91;;;8.75;100.00
36600;BME280;35385;55.668;37.508;2023-05-03T04:39:46;99417.94;;;8.66;100.00
36600;BME280;35385;55.668;37.508;2023-05-03T04:40:48;99354.59;;;8.25;100.00
36600;BME280;35385;55.668;37.508;2023-05-03T04:41:48;99415.78;;;8.60;100.00
36600;BME280;35385;55.668;37.508;2023-05-03T04:42:49;99418.44;;;8.60;100.00
36600;BME280;35385;55.668;37.508;2023-05-03T04:43:49;99421.34;;;8.57;100.00
36600;BME280;35385;55.668;37.508;2023-05-03T04:44:51;99414.09;;;8.48;100.00
36600;BME280;35385;55.668;37.508;2023-05-03T04:45:52;99384.38;;;8.30;100.00
36600;BME280;35385;55.668;37.508;2023-05-03T04:46:53;99395.78;;;8.43;100.00
36600;BME280;35385;55.668;37.508;2023-05-03T04:47:53;99396.19;;;8.50;100.00
36600;BME280;35385;55.668;37.508;2023-05-03T04:48:54;99415.28;;;8.55;100.00
36600;BME280;35385;55.668;37.508;2023-05-03T04:49:55;99401.50;;;8.50;100.00
36600;BME280;35385;55.668;37.508;2023-05-03T04:50:56;99415.41;;;8.54;100.00
36600;BME280;35385;55.668;37.508;2023-05-03T04:51:57;99400.50;;;8.40;100.00
36600;BME280;35385;55.668;37.508;2023-05-03T04:52:58;99376.75;;;8.26;100.00
36600;BME280;35385;55.668;37.508;2023-05-03T04:53:58;99421.34;;;8.57;100.00
36600;BME280;35385;55.668;37.508;2023-05-03T04:54:59;99419.03;;;8.52;100.00
36600;BME280;35385;55.668;37.508;2023-05-03T04:55:59;99424.50;;;8.51;100.00
36600;BME280;35385;55.668;37.508;2023-05-03T04:57:00;99405.09;;;8.38;100.00
36600;BME280;35385;55.668;37.508;2023-05-03T04:58:01;99409.34;;;8.40;100.00
36600;BME280;35385;55.668;37.508;2023-05-03T04:59:02;99402.94;;;8.43;100.00
36600;BME280;35385;55.668;37.508;2023-05-03T05:00:04;99415.78;;;8.49;100.00
36600;BME280;35385;55.668;37.508;2023-05-03T05:01:10;99417.38;;;8.63;100.00
36600;BME280;35385;55.668;37.508;2023-05-03T05:02:10;99430.78;;;8.95;100.00
36600;BME280;35385;55.668;37.508;2023-05-03T05:03:11;99430.06;;;8.93;100.00
36600;BME280;35385;55.668;37.508;2023-05-03T05:04:12;99421.59;;;8.88;100.00
36600;BME280;35385;55.668;37.508;2023-05-03T05:05:12;99413.09;;;8.82;100.00
36600;BME280;35385;55.668;37.508;2023-05-03T05:06:13;99420.63;;;8.77;100.00
36600;BME280;35385;55.668;37.508;2023-05-03T05:07:14;99422.34;;;8.78;100.00
36600;BME280;35385;55.668;37.508;2023-05-03T05:08:14;99426.19;;;8.97;100.00
36600;BME280;35385;55.668;37.508;2023-05-03T05:09:24;99423.97;;;9.24;100.00
36600;BME280;35385;55.668;37.508;2023-05-03T05:10:25;99363.56;;;9.02;100.00
36600;BME280;35385;55.668;37.508;2023-05-03T05:11:25;99404.97;;;9.17;100.00
36600;BME280;35385;55.668;37.508;2023-05-03T05:12:26;99415.75;;;9.16;100.00
36600;BME280;35385;55.668;37.508;2023-05-03T05:13:27;99394.72;;;8.91;100.00
36600;BME280;35385;55.668;37.508;2023-05-03T05:14:29;99407.88;;;9.14;100.00
36600;BME280;35385;55.668;37.508;2023-05-03T05:15:30;99412.34;;;9.25;100.00
36600;BME280;35385;55.668;37.508;2023-05-03T05:16:31;99413.31;;;9.24;100.00
36600;BME280;35385;55.668;37.508;2023-05-03T05:17:31;99276.50;;;8.37;100.00
36600;BME280;35385;55.668;37.508;2023-05-03T05:18:32;99414.78;;;9.17;100.00
36600;BME280;35385;55.668;37.508;2023-05-03T05:19:34;99419.88;;;9.20;100.00
36600;BME280;35385;55.668;37.508;2023-05-03T05:20:35;99414.50;;;9.31;100.00
36600;BME280;35385;55.668;37.508;2023-05-03T05:21:36;99415.69;;;9.49;100.00
36600;BME280;35385;55.668;37.508;2023-05-03T05:22:39;99358.69;;;9.18;100.00
36600;BME280;35385;55.668;37.508;2023-05-03T05:23:40;99366.09;;;9.15;100.00
36600;BME280;35385;55.668;37.508;2023-05-03T05:24:41;99412.78;;;9.41;100.00
36600;BME280;35385;55.668;37.508;2023-05-03T05:25:41;99421.50;;;9.43;100.00
36600;BME280;35385;55.668;37.508;2023-05-03T05:26:42;99425.88;;;9.44;100.00
36600;BME280;35385;55.668;37.508;2023-05-03T05:27:43;99424.06;;;9.45;100.00